Wevelgem, Belgium
Current Conditions -  °F | °C
As of 11:30 AM on Wednesday 22 Oct 2014 (Local Time) from LFQQ Reporting Station
Scattered Clouds Scattered Clouds  
Wind Chill: 52°   Ceiling: Unl
Heat Index: 52°   Visibility: 6mi
Dew Point: 45°   Wind: 16mph
Humidity: 76%   Direction: 300°WNW
Pressure: 30.21"   Gusts: NA
Location:  50.8°N, 3.17°E
Report Text: LFQQ 220930Z 30014KT 9999 SCT033 SCT050 11/07 Q1023 NOSIG
Loading
Personal Weather Stations






























Interactive Weather Map
Tropical Storm Tracking
New forecast layout! Learn more

10-Day Weather Forecast

Advertisements
Track Severe Weather on mobile